createdAt,value
2023-03-26T00:00:44.901Z,95581.47
2023-03-26T00:01:50.141Z,95577.28
2023-03-26T00:02:57.451Z,95584.31
2023-03-26T00:04:03.006Z,95572.28
2023-03-26T00:05:24.243Z,95581.16
2023-03-26T00:06:35.282Z,95583.88
2023-03-26T00:07:37.680Z,95585.63
2023-03-26T00:08:45.268Z,95583.72
2023-03-26T00:09:47.488Z,95587.13
2023-03-26T00:10:52.265Z,95585.91
2023-03-26T00:12:06.553Z,95581.84
2023-03-26T00:13:09.231Z,95580.44
2023-03-26T00:14:18.063Z,95583.09
2023-03-26T00:15:20.265Z,95594.56
2023-03-26T00:16:25.089Z,95582.03
2023-03-26T00:17:27.318Z,95572.03
2023-03-26T00:18:35.092Z,95585.66
2023-03-26T00:19:38.249Z,95585.03
2023-03-26T00:20:43.065Z,95587.00
2023-03-26T00:21:51.834Z,95580.00
2023-03-26T00:22:55.325Z,95585.16
2023-03-26T00:24:04.641Z,95577.78
2023-03-26T00:25:08.193Z,95573.88
2023-03-26T00:26:13.626Z,95570.44
2023-03-26T00:27:15.839Z,95574.00
2023-03-26T00:28:21.668Z,95574.00
2023-03-26T00:29:28.275Z,95582.91
2023-03-26T00:30:30.501Z,95578.81
2023-03-26T00:31:38.460Z,95572.72
2023-03-26T00:32:40.582Z,95581.13
2023-03-26T00:33:47.263Z,95577.78
2023-03-26T00:34:52.543Z,95582.19
2023-03-26T00:36:03.912Z,95578.09
2023-03-26T00:37:12.986Z,95584.16
2023-03-26T00:38:18.371Z,95581.59
2023-03-26T00:39:22.332Z,95578.28
2023-03-26T00:40:28.882Z,95573.09
2023-03-26T00:41:31.911Z,95586.00
2023-03-26T00:42:37.830Z,95588.81
2023-03-26T00:43:43.232Z,95591.44
2023-03-26T00:44:55.593Z,95583.56
2023-03-26T00:45:58.919Z,95588.50
2023-03-26T00:47:03.956Z,95591.78
2023-03-26T00:48:06.863Z,95591.03
2023-03-26T00:49:15.740Z,95588.44
2023-03-26T00:50:19.532Z,95588.50
2023-03-26T00:51:25.662Z,95590.69
2023-03-26T00:52:41.175Z,95588.94
2023-03-26T00:53:46.854Z,95582.16
2023-03-26T00:54:52.408Z,95579.81
2023-03-26T00:56:00.707Z,95588.63
2023-03-26T00:57:07.164Z,95583.91
2023-03-26T00:58:26.270Z,95582.56
2023-03-26T00:59:36.171Z,95576.81
2023-03-26T01:00:46.870Z,95574.72
2023-03-26T01:01:55.288Z,95574.03
2023-03-26T01:02:59.517Z,95568.91
2023-03-26T01:04:37.864Z,95570.78
2023-03-26T01:05:53.318Z,95568.63
2023-03-26T01:06:59.574Z,95561.75
2023-03-26T01:08:23.503Z,95563.63
2023-03-26T01:09:39.234Z,95568.97
2023-03-26T01:10:43.571Z,95554.56
2023-03-26T01:11:49.703Z,95557.09
2023-03-26T01:12:59.497Z,95559.78
2023-03-26T01:14:31.308Z,95550.09
2023-03-26T01:15:38.355Z,95556.84
2023-03-26T01:16:50.418Z,95551.44
2023-03-26T01:17:58.003Z,95547.78
2023-03-26T01:19:04.186Z,95547.88
2023-03-26T01:20:15.814Z,95541.91
2023-03-26T01:21:33.409Z,95542.09
2023-03-26T01:22:38.007Z,95547.22
2023-03-26T01:23:52.449Z,95537.91
2023-03-26T01:24:57.942Z,95531.72
2023-03-26T01:26:13.603Z,95531.94
2023-03-26T01:27:28.779Z,95539.34
2023-03-26T01:28:35.756Z,95537.09
2023-03-26T01:29:52.854Z,95540.66
2023-03-26T01:31:10.339Z,95541.81
2023-03-26T01:32:27.708Z,95534.84
2023-03-26T01:33:39.906Z,95533.00
2023-03-26T01:34:59.144Z,95519.59
2023-03-26T01:36:08.582Z,95517.81
2023-03-26T01:37:21.270Z,95521.06
2023-03-26T01:38:33.896Z,95522.38
2023-03-26T01:39:42.869Z,95512.03
2023-03-26T01:40:55.218Z,95514.53
2023-03-26T01:42:12.211Z,95522.22
2023-03-26T01:43:31.804Z,95514.53
2023-03-26T01:44:41.468Z,95512.91
2023-03-26T01:45:50.655Z,95514.75
2023-03-26T01:47:00.647Z,95503.66
2023-03-26T01:48:12.372Z,95512.09
2023-03-26T01:49:16.073Z,95505.09
2023-03-26T01:50:27.293Z,95506.78
2023-03-26T01:51:35.794Z,95499.84
2023-03-26T01:52:43.500Z,95502.88
2023-03-26T01:53:52.273Z,95496.91
2023-03-26T01:54:56.454Z,95497.66
2023-03-26T01:56:15.535Z,95486.63
2023-03-26T01:57:24.800Z,95485.91
2023-03-26T01:58:38.272Z,95495.28
2023-03-26T01:59:58.548Z,95494.53
2023-03-26T02:01:17.285Z,95494.72
2023-03-26T02:02:33.215Z,95498.31
2023-03-26T02:03:45.264Z,95492.94
2023-03-26T02:04:53.929Z,95491.16
2023-03-26T02:06:07.190Z,95494.53
2023-03-26T02:07:18.206Z,95492.09
2023-03-26T02:08:32.112Z,95484.38
2023-03-26T02:09:46.380Z,95487.91
2023-03-26T02:10:55.988Z,95486.25
2023-03-26T02:12:04.761Z,95477.50
2023-03-26T02:13:11.336Z,95480.00
2023-03-26T02:14:21.468Z,95484.97
2023-03-26T02:15:26.959Z,95482.31
2023-03-26T02:16:29.764Z,95478.06
2023-03-26T02:17:47.461Z,95476.38
2023-03-26T02:18:55.990Z,95459.97
2023-03-26T02:20:06.156Z,95460.84
2023-03-26T02:21:12.719Z,95452.19
2023-03-26T02:22:18.900Z,95455.00
2023-03-26T02:23:22.563Z,95455.00
2023-03-26T02:24:27.409Z,95446.22
2023-03-26T02:25:29.973Z,95448.13
2023-03-26T02:26:39.366Z,95443.19
2023-03-26T02:29:48.403Z,95449.66
2023-03-26T02:30:51.413Z,95447.13
2023-03-26T02:32:13.858Z,95436.75
2023-03-26T02:35:09.146Z,95444.69
2023-03-26T02:36:14.780Z,95442.19
2023-03-26T02:37:23.397Z,95437.38
2023-03-26T02:38:26.804Z,95439.38
2023-03-26T02:39:34.358Z,95437.72
2023-03-26T02:40:53.651Z,95432.72
2023-03-26T02:41:59.434Z,95430.91
2023-03-26T02:43:03.164Z,95431.97
2023-03-26T02:44:08.806Z,95423.63
2023-03-26T02:45:18.951Z,95433.75
2023-03-26T02:46:22.455Z,95429.69
2023-03-26T02:47:28.492Z,95428.00
2023-03-26T02:48:31.973Z,95431.56
2023-03-26T02:50:09.198Z,95428.19
2023-03-26T02:51:12.538Z,95425.03
2023-03-26T02:52:19.074Z,95418.84
2023-03-26T02:53:23.190Z,95418.13
2023-03-26T02:54:58.485Z,95417.56
2023-03-26T02:56:02.970Z,95405.88
2023-03-26T02:57:07.997Z,95412.81
2023-03-26T02:58:12.572Z,95412.22
2023-03-26T02:59:17.928Z,95414.63
2023-03-26T03:00:24.130Z,95420.50
2023-03-26T03:01:43.988Z,95417.94
2023-03-26T03:02:48.989Z,95408.59
2023-03-26T03:03:54.981Z,95416.16
2023-03-26T03:05:03.574Z,95416.25
2023-03-26T03:06:09.607Z,95414.63
2023-03-26T03:07:15.297Z,95423.97
2023-03-26T03:08:21.517Z,95414.50
2023-03-26T03:09:25.166Z,95404.84
2023-03-26T03:10:34.457Z,95410.28
2023-03-26T03:11:40.408Z,95403.03
2023-03-26T03:12:44.591Z,95401.13
2023-03-26T03:15:54.791Z,95397.13
2023-03-26T03:16:59.914Z,95394.53
2023-03-26T03:18:05.661Z,95393.75
2023-03-26T03:19:08.571Z,95392.00
2023-03-26T03:20:14.385Z,95391.09
2023-03-26T03:21:17.271Z,95390.03
2023-03-26T03:22:23.610Z,95387.88
2023-03-26T03:23:26.659Z,95377.56
2023-03-26T03:24:34.246Z,95391.34
2023-03-26T03:25:38.768Z,95384.00
2023-03-26T03:26:46.403Z,95387.34
2023-03-26T03:27:54.540Z,95382.19
2023-03-26T03:29:00.949Z,95386.59
2023-03-26T03:30:05.133Z,95377.97
2023-03-26T03:31:13.215Z,95377.06
2023-03-26T03:32:15.759Z,95377.59
2023-03-26T03:33:21.033Z,95367.22
2023-03-26T03:34:23.802Z,95381.09
2023-03-26T03:37:21.827Z,95377.25
2023-03-26T03:38:29.724Z,95378.88
2023-03-26T03:39:35.302Z,95369.59
2023-03-26T03:42:32.835Z,95370.56
2023-03-26T03:43:35.424Z,95364.22
2023-03-26T03:44:40.290Z,95368.28
2023-03-26T03:45:42.541Z,95365.69
2023-03-26T03:46:54.290Z,95364.91
2023-03-26T03:47:56.305Z,95361.63
2023-03-26T03:49:01.340Z,95358.94
2023-03-26T03:50:03.853Z,95359.00
2023-03-26T03:51:09.379Z,95358.16
2023-03-26T03:52:11.570Z,95361.44
2023-03-26T03:54:51.252Z,95362.00
2023-03-26T03:57:22.310Z,95350.81
2023-03-26T03:58:28.318Z,95354.22
2023-03-26T03:59:33.253Z,95344.75
2023-03-26T04:00:38.526Z,95345.94
2023-03-26T04:01:47.291Z,95340.16
2023-03-26T04:02:54.679Z,95332.94
2023-03-26T04:03:59.928Z,95337.34
2023-03-26T04:05:03.410Z,95334.84
2023-03-26T04:06:11.288Z,95329.75
2023-03-26T04:07:13.470Z,95331.06
2023-03-26T04:08:19.576Z,95326.94
2023-03-26T04:09:21.834Z,95327.06
2023-03-26T04:10:26.784Z,95323.75
2023-03-26T04:11:28.984Z,95317.03
2023-03-26T04:12:34.292Z,95318.84
2023-03-26T04:13:36.630Z,95329.09
2023-03-26T04:14:41.448Z,95318.84
2023-03-26T04:16:02.581Z,95313.59
2023-03-26T04:17:05.541Z,95317.75
2023-03-26T04:18:13.525Z,95313.59
2023-03-26T04:19:16.288Z,95316.25
2023-03-26T04:20:21.206Z,95313.69
2023-03-26T04:21:24.589Z,95318.00
2023-03-26T04:22:36.740Z,95312.81
2023-03-26T04:23:43.384Z,95321.34
2023-03-26T04:24:48.978Z,95310.25
2023-03-26T04:25:54.200Z,95315.38
2023-03-26T04:27:12.465Z,95310.25
2023-03-26T04:28:22.574Z,95310.25
2023-03-26T04:29:28.387Z,95309.41
2023-03-26T04:30:33.626Z,95308.22
2023-03-26T04:31:36.525Z,95311.66
2023-03-26T04:32:43.263Z,95305.63
2023-03-26T04:33:48.106Z,95303.94
2023-03-26T04:34:53.119Z,95291.09
2023-03-26T04:36:01.799Z,95292.00
2023-03-26T04:37:06.843Z,95290.34
2023-03-26T04:38:11.681Z,95287.78
2023-03-26T04:39:16.906Z,95285.28
2023-03-26T04:40:22.197Z,95279.31
2023-03-26T04:41:28.121Z,95272.50
2023-03-26T04:42:30.556Z,95276.78
2023-03-26T04:43:36.130Z,95273.38
2023-03-26T04:44:38.377Z,95268.25
2023-03-26T04:45:43.948Z,95262.34
2023-03-26T04:46:55.664Z,95250.41
2023-03-26T04:47:58.455Z,95257.28
2023-03-26T04:49:06.676Z,95255.63
2023-03-26T04:50:12.680Z,95253.88
2023-03-26T04:51:19.350Z,95248.78
2023-03-26T04:54:09.010Z,95247.19
2023-03-26T04:55:21.784Z,95247.19
2023-03-26T04:56:38.411Z,95245.53
2023-03-26T04:57:46.429Z,95244.75
2023-03-26T04:58:52.007Z,95239.63
2023-03-26T04:59:56.766Z,95242.19
2023-03-26T05:01:10.492Z,95233.69
2023-03-26T05:02:15.879Z,95238.84
2023-03-26T05:03:21.175Z,95235.50
2023-03-26T05:04:29.724Z,95238.00
2023-03-26T05:05:32.137Z,95239.75
2023-03-26T05:06:38.355Z,95231.22
2023-03-26T05:07:42.360Z,95235.50
2023-03-26T05:08:47.089Z,95228.66
2023-03-26T05:09:49.161Z,95222.69
2023-03-26T05:10:54.116Z,95220.13
2023-03-26T05:13:47.268Z,95224.34
2023-03-26T05:14:49.462Z,95224.34
2023-03-26T05:15:55.794Z,95217.53
2023-03-26T05:16:57.962Z,95215.81
2023-03-26T05:18:02.719Z,95214.84
2023-03-26T05:19:04.884Z,95207.97
2023-03-26T05:20:21.070Z,95204.50
2023-03-26T05:21:23.427Z,95212.97
2023-03-26T05:22:28.235Z,95213.88
2023-03-26T05:23:30.736Z,95210.50
2023-03-26T05:24:35.512Z,95214.72
2023-03-26T05:25:37.649Z,95205.28
2023-03-26T05:26:42.371Z,95207.78
2023-03-26T05:27:44.580Z,95212.94
2023-03-26T05:28:49.353Z,95205.22
2023-03-26T05:30:01.039Z,95200.00
2023-03-26T05:31:07.209Z,95205.91
2023-03-26T05:32:10.233Z,95203.25
2023-03-26T05:33:15.085Z,95200.66
2023-03-26T05:34:17.544Z,95196.34
2023-03-26T05:35:24.995Z,95197.16
2023-03-26T05:36:28.673Z,95189.53
2023-03-26T05:37:33.943Z,95190.31
2023-03-26T05:38:37.268Z,95195.31
2023-03-26T05:39:44.030Z,95194.47
2023-03-26T05:40:46.171Z,95195.31
2023-03-26T05:41:51.171Z,95193.38
2023-03-26T05:42:53.298Z,95196.53
2023-03-26T05:43:58.122Z,95200.75
2023-03-26T05:45:00.268Z,95195.63
2023-03-26T05:46:05.573Z,95194.66
2023-03-26T05:47:07.703Z,95192.88
2023-03-26T05:48:12.367Z,95196.22
2023-03-26T05:49:14.510Z,95190.97
2023-03-26T05:50:19.204Z,95190.94
2023-03-26T05:51:24.094Z,95194.25
2023-03-26T05:52:28.886Z,95185.56
2023-03-26T05:53:31.573Z,95181.22
2023-03-26T05:54:36.419Z,95179.31
2023-03-26T05:55:38.448Z,95188.59
2023-03-26T05:56:43.316Z,95185.94
2023-03-26T05:57:45.726Z,95188.44
2023-03-26T05:58:52.130Z,95178.84
2023-03-26T05:59:54.507Z,95181.22
2023-03-26T06:02:06.603Z,95171.31
2023-03-26T06:03:13.177Z,95173.59
2023-03-26T06:04:18.810Z,95170.81
2023-03-26T06:05:20.927Z,95173.16
2023-03-26T06:06:28.220Z,95167.97
2023-03-26T06:07:31.411Z,95166.06
2023-03-26T06:08:36.068Z,95164.19
2023-03-26T06:09:38.856Z,95164.06
2023-03-26T06:10:44.084Z,95171.69
2023-03-26T06:11:46.359Z,95168.16
2023-03-26T06:12:51.136Z,95161.25
2023-03-26T06:13:53.218Z,95161.25
2023-03-26T06:14:57.882Z,95157.84
2023-03-26T06:16:00.201Z,95161.25
2023-03-26T06:17:05.018Z,95155.09
2023-03-26T06:18:07.113Z,95150.91
2023-03-26T06:19:11.919Z,95155.91
2023-03-26T06:20:14.759Z,95150.09
2023-03-26T06:21:19.536Z,95150.16
2023-03-26T06:22:24.258Z,95146.44
2023-03-26T06:23:29.072Z,95143.88
2023-03-26T06:24:31.405Z,95144.78
2023-03-26T06:25:36.243Z,95145.06
2023-03-26T06:26:38.477Z,95140.63
2023-03-26T06:27:43.143Z,95139.31
2023-03-26T06:28:45.231Z,95140.63
2023-03-26T06:29:49.894Z,95131.06
2023-03-26T06:30:52.956Z,95137.00
2023-03-26T06:32:06.220Z,95134.34
2023-03-26T06:33:15.009Z,95134.50
2023-03-26T06:34:19.686Z,95129.06
2023-03-26T06:35:21.949Z,95137.06
2023-03-26T06:36:26.782Z,95138.88
2023-03-26T06:37:31.443Z,95141.38
2023-03-26T06:38:36.125Z,95137.28
2023-03-26T06:39:38.294Z,95148.25
2023-03-26T06:40:42.976Z,95143.25
2023-03-26T06:41:45.075Z,95136.50
2023-03-26T06:43:09.536Z,95141.44
2023-03-26T06:44:14.428Z,95135.88
2023-03-26T06:45:16.983Z,95130.56
2023-03-26T06:46:21.699Z,95140.84
2023-03-26T06:47:23.865Z,95117.09
2023-03-26T06:48:28.507Z,95119.06
2023-03-26T06:49:34.570Z,95112.09
2023-03-26T06:50:36.628Z,95108.00
2023-03-26T06:51:41.702Z,95104.38
2023-03-26T06:52:46.471Z,95090.84
2023-03-26T06:53:51.237Z,95091.66
2023-03-26T06:54:53.373Z,95096.66
2023-03-26T06:55:58.217Z,95097.28
2023-03-26T06:57:02.933Z,95094.56
2023-03-26T06:58:05.070Z,95092.75
2023-03-26T06:59:09.799Z,95082.16
2023-03-26T07:00:13.909Z,95073.38
2023-03-26T07:01:18.624Z,95081.84
2023-03-26T07:02:21.088Z,95073.09
2023-03-26T07:03:26.187Z,95071.94
2023-03-26T07:04:28.331Z,95076.03
2023-03-26T07:05:33.057Z,95070.50
2023-03-26T07:06:35.183Z,95073.69
2023-03-26T07:07:46.191Z,95075.94
2023-03-26T07:08:55.577Z,95076.69
2023-03-26T07:09:57.636Z,95077.53
2023-03-26T07:11:02.356Z,95072.06
2023-03-26T07:12:04.989Z,95073.97
2023-03-26T07:13:09.787Z,95065.31
2023-03-26T07:14:11.983Z,95064.44
2023-03-26T07:15:16.926Z,95068.81
2023-03-26T07:16:19.074Z,95061.00
2023-03-26T07:17:23.988Z,95060.63
2023-03-26T07:18:26.116Z,95065.59
2023-03-26T07:19:30.881Z,95063.84
2023-03-26T07:20:33.816Z,95064.94
2023-03-26T07:21:39.487Z,95060.78
2023-03-26T07:22:42.578Z,95058.34
2023-03-26T07:23:48.154Z,95053.06
2023-03-26T07:24:54.214Z,95056.28
2023-03-26T07:25:59.733Z,95050.97
2023-03-26T07:27:10.596Z,95046.53
2023-03-26T07:28:24.498Z,95028.94
2023-03-26T07:29:35.214Z,95032.09
2023-03-26T07:30:52.278Z,95029.38
2023-03-26T07:32:06.296Z,95029.44
2023-03-26T07:33:14.853Z,95023.06
2023-03-26T07:34:34.815Z,95025.47
2023-03-26T07:35:41.854Z,95016.75
2023-03-26T07:36:54.731Z,95019.38
2023-03-26T07:38:12.715Z,95007.66
2023-03-26T07:39:31.064Z,95009.81
2023-03-26T07:40:47.184Z,95011.31
2023-03-26T07:41:53.891Z,95012.06
2023-03-26T07:43:06.668Z,95005.75
2023-03-26T07:44:24.871Z,95004.16
2023-03-26T07:45:34.327Z,95006.16
2023-03-26T07:46:41.658Z,95007.50
2023-03-26T07:47:45.409Z,94998.03
2023-03-26T07:48:52.028Z,94992.72
2023-03-26T07:49:56.037Z,94998.03
2023-03-26T07:51:03.125Z,95004.66
2023-03-26T07:52:05.881Z,95002.25
2023-03-26T07:53:11.280Z,94989.06
2023-03-26T07:54:14.328Z,94981.25
2023-03-26T07:55:21.172Z,94980.06
2023-03-26T07:56:34.132Z,94984.97
2023-03-26T07:57:47.806Z,94977.84
2023-03-26T07:59:07.521Z,94974.22
2023-03-26T08:00:18.689Z,94974.72
2023-03-26T08:01:34.726Z,94974.97
2023-03-26T08:03:05.273Z,94971.16
2023-03-26T08:04:39.792Z,94964.75
2023-03-26T08:05:50.546Z,94972.81
2023-03-26T08:07:02.513Z,94966.47
2023-03-26T08:08:14.769Z,94964.91
2023-03-26T08:09:26.685Z,94961.03
2023-03-26T08:10:39.333Z,94964.09
2023-03-26T08:11:57.014Z,94969.56
2023-03-26T08:13:08.250Z,94963.91
2023-03-26T08:14:27.991Z,94968.34
2023-03-26T08:15:34.179Z,94976.97
2023-03-26T08:16:46.336Z,94974.56
2023-03-26T08:17:54.727Z,94969.34
2023-03-26T08:19:08.414Z,94971.91
2023-03-26T08:20:26.432Z,94972.03
2023-03-26T08:21:38.324Z,94975.31
2023-03-26T08:22:43.452Z,94963.78
2023-03-26T08:24:00.627Z,94966.78
2023-03-26T08:25:21.014Z,94964.03
2023-03-26T08:26:32.168Z,94965.03
2023-03-26T08:27:43.525Z,94959.53
2023-03-26T08:29:02.378Z,94961.22
2023-03-26T08:30:15.010Z,94956.13
2023-03-26T08:31:21.671Z,94950.56
2023-03-26T08:32:24.776Z,94953.91
2023-03-26T08:33:31.281Z,94943.34
2023-03-26T08:34:33.334Z,94944.84
2023-03-26T08:35:42.455Z,94946.84
2023-03-26T08:36:44.767Z,94948.25
2023-03-26T08:37:49.673Z,94949.31
2023-03-26T08:38:52.583Z,94950.06
2023-03-26T08:39:57.371Z,94944.44
2023-03-26T08:41:29.320Z,94953.16
2023-03-26T08:43:12.077Z,94956.84
2023-03-26T08:44:56.788Z,94957.28
2023-03-26T08:46:27.680Z,94953.28
2023-03-26T08:48:03.923Z,94944.06
2023-03-26T08:49:50.147Z,94942.16
2023-03-26T08:51:30.701Z,94939.69
2023-03-26T08:53:00.115Z,94922.56
2023-03-26T08:54:31.375Z,94932.88
2023-03-26T08:55:44.078Z,94936.59
2023-03-26T08:56:56.400Z,94929.88
2023-03-26T08:58:51.388Z,94927.22
2023-03-26T09:00:28.573Z,94934.78
2023-03-26T09:01:58.215Z,94930.28
2023-03-26T09:03:29.230Z,94919.06
2023-03-26T09:05:22.772Z,94913.41
2023-03-26T09:06:57.475Z,94912.44
2023-03-26T09:08:37.415Z,94914.84
2023-03-26T09:10:22.041Z,94911.75
2023-03-26T09:11:53.832Z,94903.22
2023-03-26T09:13:21.426Z,94912.50
2023-03-26T09:15:04.478Z,94903.44
2023-03-26T09:16:42.909Z,94905.59
2023-03-26T09:18:33.410Z,94901.63
2023-03-26T09:20:08.991Z,94890.78
2023-03-26T09:21:52.154Z,94891.00
2023-03-26T09:23:23.590Z,94892.59
2023-03-26T09:24:56.524Z,94895.59
2023-03-26T09:26:17.508Z,94882.91
2023-03-26T09:27:39.872Z,94881.16
2023-03-26T09:29:23.423Z,94876.94
2023-03-26T09:31:05.744Z,94885.31
2023-03-26T09:32:34.058Z,94891.19
2023-03-26T09:34:00.307Z,94887.75
2023-03-26T09:35:42.268Z,94879.50
2023-03-26T09:37:06.556Z,94886.44
2023-03-26T09:38:30.683Z,94890.91
2023-03-26T09:39:42.209Z,94890.91
2023-03-26T09:40:53.398Z,94889.91
2023-03-26T09:42:12.000Z,94893.41
2023-03-26T09:43:49.328Z,94890.44
2023-03-26T09:45:22.793Z,94895.59
2023-03-26T09:46:41.410Z,94885.09
2023-03-26T09:48:05.706Z,94890.28
2023-03-26T09:49:23.837Z,94877.16
2023-03-26T09:50:35.791Z,94886.22
2023-03-26T09:52:01.811Z,94883.38
2023-03-26T09:53:32.176Z,94874.66
2023-03-26T09:54:58.613Z,94875.09
2023-03-26T09:56:15.819Z,94877.16
2023-03-26T09:57:40.519Z,94881.38
2023-03-26T09:59:20.951Z,94886.38
2023-03-26T10:00:35.689Z,94877.22
2023-03-26T10:01:49.716Z,94865.69
2023-03-26T10:03:21.061Z,94873.69
2023-03-26T10:04:47.718Z,94871.06
2023-03-26T10:05:59.215Z,94870.78
2023-03-26T10:07:10.637Z,94875.63
2023-03-26T10:08:38.341Z,94874.16
2023-03-26T10:09:56.994Z,94878.25
2023-03-26T10:11:07.510Z,94886.28
2023-03-26T10:12:22.667Z,94882.94
2023-03-26T10:13:35.157Z,94883.00
2023-03-26T10:14:46.668Z,94893.25
2023-03-26T10:15:58.673Z,94886.72
2023-03-26T10:17:15.664Z,94884.09
2023-03-26T10:18:33.493Z,94883.06
2023-03-26T10:19:52.377Z,94878.50
2023-03-26T10:21:04.403Z,94885.22
2023-03-26T10:22:20.782Z,94869.66
2023-03-26T10:24:00.710Z,94871.22
2023-03-26T10:25:32.487Z,94873.81
2023-03-26T10:27:08.985Z,94875.19
2023-03-26T10:28:28.221Z,94869.84
2023-03-26T10:30:17.303Z,94876.25
2023-03-26T10:31:51.606Z,94875.72
2023-03-26T10:33:08.070Z,94876.19
2023-03-26T10:34:38.896Z,94869.09
2023-03-26T10:35:53.109Z,94870.88
2023-03-26T10:37:06.778Z,94867.31
2023-03-26T10:38:16.874Z,94859.53
2023-03-26T10:39:54.499Z,94866.59
2023-03-26T10:41:07.746Z,94878.84
2023-03-26T10:42:26.138Z,94879.50
2023-03-26T10:43:58.052Z,94861.91
2023-03-26T10:45:29.089Z,94862.13
2023-03-26T10:46:55.504Z,94865.41
2023-03-26T10:50:02.995Z,94851.56
2023-03-26T10:51:34.439Z,94854.25
2023-03-26T10:52:43.281Z,94855.47
2023-03-26T10:53:52.583Z,94850.72
2023-03-26T10:55:00.700Z,94846.50
2023-03-26T10:56:14.095Z,94848.28
2023-03-26T10:57:30.221Z,94844.56
2023-03-26T10:58:48.698Z,94838.72
2023-03-26T10:59:55.096Z,94834.81
2023-03-26T11:01:05.893Z,94838.56
2023-03-26T11:02:29.332Z,94837.81
2023-03-26T11:03:52.184Z,94854.19
2023-03-26T11:05:17.073Z,94836.34
2023-03-26T11:06:35.560Z,94848.31
2023-03-26T11:07:46.500Z,94850.34
2023-03-26T11:08:56.205Z,94846.75
2023-03-26T11:10:09.072Z,94843.31
2023-03-26T11:11:24.982Z,94848.88
2023-03-26T11:12:35.544Z,94857.56
2023-03-26T11:13:46.980Z,94865.84
2023-03-26T11:15:01.167Z,94866.94
2023-03-26T11:16:05.822Z,94853.03
2023-03-26T11:17:39.485Z,94852.00
2023-03-26T11:18:50.094Z,94852.81
2023-03-26T11:20:02.820Z,94857.31
2023-03-26T11:21:19.340Z,94849.31
2023-03-26T11:22:31.893Z,94848.53
2023-03-26T11:23:38.531Z,94848.94
2023-03-26T11:25:11.769Z,94855.19
2023-03-26T11:26:17.234Z,94846.34
2023-03-26T11:27:35.759Z,94849.06
2023-03-26T11:29:03.488Z,94837.06
2023-03-26T11:30:30.071Z,94847.19
2023-03-26T11:31:46.975Z,94842.06
2023-03-26T11:32:55.747Z,94829.69
2023-03-26T11:34:03.408Z,94826.59
2023-03-26T11:35:40.352Z,94833.47
2023-03-26T11:36:50.743Z,94828.81
2023-03-26T11:37:54.828Z,94834.78
2023-03-26T11:39:04.646Z,94823.09
2023-03-26T11:40:18.247Z,94835.38
2023-03-26T11:41:23.525Z,94822.00
2023-03-26T11:42:29.970Z,94824.13
2023-03-26T11:43:36.467Z,94817.06
2023-03-26T11:44:45.702Z,94820.97
2023-03-26T11:45:53.955Z,94817.34
2023-03-26T11:47:04.323Z,94816.97
2023-03-26T11:48:14.903Z,94808.44
2023-03-26T11:49:19.479Z,94812.81
2023-03-26T11:50:32.964Z,94813.50
2023-03-26T11:51:37.035Z,94809.19
2023-03-26T11:52:41.679Z,94797.56
2023-03-26T11:53:46.914Z,94794.19
2023-03-26T11:54:51.530Z,94796.22
2023-03-26T11:56:01.143Z,94796.56
2023-03-26T11:57:09.371Z,94788.41
2023-03-26T11:58:26.471Z,94798.00
2023-03-26T11:59:45.165Z,94788.47
2023-03-26T12:00:53.264Z,94775.41
2023-03-26T12:02:01.377Z,94779.97
2023-03-26T12:03:03.583Z,94786.50
2023-03-26T12:04:14.550Z,94779.22
2023-03-26T12:05:22.447Z,94782.94
2023-03-26T12:06:29.159Z,94764.72
2023-03-26T12:07:35.860Z,94780.72
2023-03-26T12:08:42.658Z,94785.94
2023-03-26T12:09:52.213Z,94784.38
2023-03-26T12:11:05.596Z,94778.78
2023-03-26T12:12:14.353Z,94777.06
2023-03-26T12:13:29.847Z,94784.63
2023-03-26T12:14:37.474Z,94782.59
2023-03-26T12:15:43.901Z,94785.47
2023-03-26T12:17:03.691Z,94772.69
2023-03-26T12:18:23.721Z,94781.72
2023-03-26T12:19:29.202Z,94764.78
2023-03-26T12:20:36.150Z,94756.34
2023-03-26T12:21:50.386Z,94753.25
2023-03-26T12:22:53.461Z,94757.03
2023-03-26T12:24:01.673Z,94755.00
2023-03-26T12:25:16.300Z,94770.94
2023-03-26T12:26:23.536Z,94758.03
2023-03-26T12:27:28.595Z,94764.34
2023-03-26T12:28:35.146Z,94763.75
2023-03-26T12:29:39.792Z,94753.13
2023-03-26T12:30:45.255Z,94761.50
2023-03-26T12:31:57.586Z,94763.09
2023-03-26T12:33:04.047Z,94764.16
2023-03-26T12:34:16.475Z,94765.22
2023-03-26T12:35:27.413Z,94772.31
2023-03-26T12:36:33.430Z,94787.44
2023-03-26T12:37:44.745Z,94773.88
2023-03-26T12:39:16.279Z,94777.16
2023-03-26T12:40:30.172Z,94778.09
2023-03-26T12:44:42.802Z,94785.09
2023-03-26T12:44:49.344Z,94796.47
2023-03-26T12:44:50.337Z,94800.25
2023-03-26T12:47:46.216Z,94827.66
2023-03-26T12:47:57.722Z,94821.97
2023-03-26T12:48:50.450Z,94828.97
2023-03-26T12:49:56.618Z,94814.44
2023-03-26T12:51:08.462Z,94814.69
2023-03-26T12:52:29.435Z,94817.69
2023-03-26T12:54:02.370Z,94817.63
2023-03-26T12:55:21.746Z,94834.94
2023-03-26T12:56:38.735Z,94832.63
2023-03-26T12:57:56.647Z,94826.03
2023-03-26T12:59:18.671Z,94821.75
2023-03-26T13:00:37.362Z,94799.47
2023-03-26T13:01:54.122Z,94795.97
2023-03-26T13:03:23.339Z,94796.50
2023-03-26T13:05:05.031Z,94786.75
2023-03-26T13:06:59.600Z,94784.34
2023-03-26T13:08:17.492Z,94772.78
2023-03-26T13:09:35.198Z,94771.72
2023-03-26T13:10:51.301Z,94777.13
2023-03-26T13:12:07.306Z,94770.38
2023-03-26T13:13:27.417Z,94766.81
2023-03-26T13:14:45.764Z,94751.47
2023-03-26T13:15:54.623Z,94752.44
2023-03-26T13:17:07.550Z,94749.81
2023-03-26T13:18:23.834Z,94754.91
2023-03-26T13:19:33.002Z,94756.78
2023-03-26T13:20:52.238Z,94744.72
2023-03-26T13:22:09.712Z,94740.81
2023-03-26T13:23:24.678Z,94733.63
2023-03-26T13:24:44.557Z,94747.94
2023-03-26T13:25:55.044Z,94732.97
2023-03-26T13:27:12.222Z,94730.03
2023-03-26T13:28:31.115Z,94724.41
2023-03-26T13:29:42.407Z,94728.16
2023-03-26T13:30:54.691Z,94730.88
2023-03-26T13:32:09.680Z,94712.28
2023-03-26T13:33:34.900Z,94698.56
2023-03-26T13:34:56.278Z,94716.22
2023-03-26T13:36:19.110Z,94714.53
2023-03-26T13:37:33.844Z,94713.81
2023-03-26T13:38:59.178Z,94694.81
2023-03-26T13:40:25.592Z,94701.16
2023-03-26T13:41:43.027Z,94697.53
2023-03-26T13:43:01.642Z,94696.97
2023-03-26T13:44:16.238Z,94688.75
2023-03-26T13:45:36.672Z,94681.81
2023-03-26T13:46:45.985Z,94678.47
2023-03-26T13:47:50.617Z,94680.69
2023-03-26T13:49:00.697Z,94680.97
2023-03-26T13:50:13.664Z,94691.69
2023-03-26T13:51:22.743Z,94683.34
2023-03-26T13:52:33.048Z,94687.38
2023-03-26T13:53:42.173Z,94688.22
2023-03-26T13:54:52.378Z,94673.78
2023-03-26T13:56:02.133Z,94681.03
2023-03-26T13:57:10.216Z,94676.88
2023-03-26T13:58:24.983Z,94671.81
2023-03-26T13:59:34.657Z,94677.28
2023-03-26T14:00:49.662Z,94685.44
2023-03-26T14:01:58.050Z,94699.75
2023-03-26T14:03:10.964Z,94689.44
2023-03-26T14:04:21.815Z,94700.09
2023-03-26T14:05:30.893Z,94704.53
2023-03-26T14:06:42.484Z,94706.06
2023-03-26T14:07:50.594Z,94711.22
2023-03-26T14:08:58.922Z,94695.75
2023-03-26T14:10:08.447Z,94697.72
2023-03-26T14:11:20.491Z,94701.81
2023-03-26T14:12:34.709Z,94699.59
2023-03-26T14:13:44.367Z,94702.03
2023-03-26T14:14:51.358Z,94695.47
2023-03-26T14:16:00.793Z,94706.59
2023-03-26T14:17:10.495Z,94702.72
2023-03-26T14:18:27.781Z,94703.91
2023-03-26T14:20:06.743Z,94706.94